Latest Coastal Weather Observations for Cape Borda

IDT60701

Issued at 7:45 am EDT Sunday 26 October 2014 (issued every 10 minutes, with the page automatically refreshed every 10 minutes)

About coastal observations | Map of coastal stations | Coastal observations for TAS | Marine services | Other Formats
Station Details ID: 022823 Name: CAPE BORDA Lat: -35.75 Lon: 136.60 Height: 158.0 m
Data from the previous 72 hours. | See also: Recent months at Cape Borda
Date/Time
EDT
Temp

°C
Wind Pressure Rain
since 9am
mm
Weather Cloud Vis
km
Sea
Height
m
Swell
Dir
 
Speed
knots
Gust
knots
hPa Trend Height
m
Period
s
Dir
26/07:30am 13.2 E 13 18 1010.6 - 0.2 - - - - - - -
26/07:00am 13.6 NNE 15 17 1012.3 - 0.2 - - - - - - -
26/06:53am 13.6 ENE 16 19 1011.3 - 0.2 - - - - - - -
26/06:49am 13.7 NNE 10 13 1013.5 - 0.2 - - - - - - -
26/06:30am 13.6 NW 5 7 1015.6 R 0.2 Thunderstorm Cloudy 20 <0.5 2.9 8 SW
26/06:06am 13.1 N 12 15 1014.7 - 0.0 - - - - - - -
26/06:00am 12.7 NNE 11 14 1012.6 - 0.0 - - - - - - -
26/05:30am 12.0 ENE 8 10 1012.0 - 0.0 - - - - - - -
26/05:00am 10.7 E 7 7 1012.0 - 0.0 - - - - - - -
26/04:30am 10.4 ESE 6 7 1012.3 - 0.0 - - - - - - -
26/04:00am 10.7 E 5 6 1012.7 - 0.0 - - - - - - -
26/03:30am 11.9 E 6 7 1013.0 - 0.0 - - - - - - -
26/03:00am 12.6 NE 6 8 1013.1 - 0.0 - - - - - - -
26/02:30am 12.9 NE 9 12 1013.1 - 0.0 - - - - - - -
26/02:00am 13.1 ENE 11 15 1013.1 - 0.0 - - - - - - -
26/01:30am 13.1 ENE 11 14 1013.4 - 0.0 - - - - - - -
26/01:00am 12.5 E 8 11 1013.9 - 0.0 - - - - - - -
26/12:30am 12.1 ESE 8 11 1014.4 - 0.0 - - - - - - -
26/12:00am 12.0 ESE 8 11 1014.9 - 0.0 - - - - - - -
 
Date/Time
EDT
Temp

°C
Wind Pressure Rain
since 9am
mm
Weather Cloud Vis
km
Sea
Height
m
Swell
Dir
 
Speed
knots
Gust
knots
hPa Trend Height
m
Period
s
Dir
25/11:30pm 12.2 ESE 9 11 1015.0 - 0.0 - - - - - - -
25/11:00pm 12.4 ESE 9 11 1015.4 - 0.0 - - - - - - -
25/10:30pm 12.7 ESE 9 13 1015.7 - 0.0 - - - - - - -
25/10:00pm 12.6 SE 9 11 1015.9 - 0.0 - - - - - - -
25/09:30pm 12.8 SSE 9 12 1016.4 - 0.0 - - - - - - -
25/09:00pm 13.1 SSE 9 11 1016.3 - 0.0 - - - - - - -
25/08:30pm 13.7 SSE 11 15 1015.8 - 0.0 - - - - - - -
25/08:00pm 14.6 S 11 15 1016.3 - 0.0 - - - - - - -
25/07:30pm 15.3 SSW 12 18 1016.3 - 0.0 - - - - - - -
25/07:00pm 16.2 SSW 13 16 1015.9 - 0.0 - - - - - - -
25/06:30pm 16.2 SW 15 19 1015.7 - 0.0 - - - - - - -
25/06:00pm 17.1 SSW 13 17 1015.5 - 0.0 - - - - - - -
25/05:30pm 18.2 SW 14 19 1015.5 - 0.0 - - - - - - -
25/05:00pm 18.4 SW 15 20 1015.4 - 0.0 - - - - - - -
25/04:30pm 18.1 SW 15 19 1015.6 - 0.0 - - - - - - -
25/04:00pm 18.1 SW 15 19 1015.7 - 0.0 - - - - - - -
25/03:30pm 17.8 SW 14 19 1015.8 F 0.0 Fine Partly cloudy 20 <0.1 2.1 9 SW
25/03:00pm 17.9 SW 14 18 1016.4 - 0.0 - - - - - - -
25/02:30pm 17.7 W 13 16 1016.7 - 0.0 - - - - - - -
25/02:00pm 18.3 SW 14 18 1016.8 - 0.0 - - - - - - -
25/01:30pm 18.0 WSW 12 16 1017.1 - 0.0 - - - - - - -
25/01:00pm 17.7 W 11 14 1017.4 - 0.0 - - - - - - -
25/12:30pm 17.8 W 9 12 1017.7 - 0.0 - - - - - - -
25/12:00pm 16.5 WNW 8 11 1018.1 - 0.0 - - - - - - -
25/11:30am 16.0 WNW 6 9 1018.0 - 0.0 - - - - - - -
25/11:00am 15.9 N 5 8 1018.1 - 0.0 - - - - - - -
25/10:30am 15.1 N 5 7 1018.1 - 0.0 - - - - - - -
25/10:00am 15.1 SSE 3 6 1018.1 - 0.0 - - - - - - -
25/09:30am 14.4 SE 4 5 1018.2 R 0.2 Fine Mostly cloudy 18 <0.1 2.2 9 SW
25/09:00am 13.7 ESE 5 6 1018.3 - 0.2 - - - - - - -
25/08:30am 13.0 SE 4 5 1018.2 - 0.2 - - - - - - -
25/08:00am 12.1 SE 5 7 1017.9 - 0.2 - - - - - - -
25/07:30am 11.3 SSE 7 7 1017.6 - 0.2 - - - - - - -
25/07:00am 11.1 SSE 6 7 1017.2 - 0.0 - - - - - - -
25/06:30am 11.2 SE 7 8 1016.8 R 0.0 Haze Partly cloudy 15 <0.1 2.3 8 SW
25/06:00am 11.2 SE 7 8 1016.5 - 0.0 - - - - - - -
25/05:30am 11.3 SE 7 8 1016.4 - 0.0 - - - - - - -
25/05:00am 11.5 SE 9 9 1016.3 - 0.0 - - - - - - -
25/04:30am 11.2 SE 8 9 1016.1 - 0.0 - - - - - - -
25/04:00am 11.6 SE 9 10 1015.9 - 0.0 - - - - - - -
25/03:30am 11.8 SE 8 11 1015.9 - 0.0 - - - - - - -
25/03:00am 12.0 SE 8 11 1015.8 - 0.0 - - - - - - -
25/02:30am 12.1 SE 8 10 1016.0 - 0.0 - - - - - - -
25/02:00am 11.6 SE 9 10 1016.2 - 0.0 - - - - - - -
25/01:30am 12.1 SE 10 12 1016.2 - 0.0 - - - - - - -
25/01:00am 12.2 SE 10 12 1016.2 - 0.0 - - - - - - -
25/12:30am 12.5 SE 11 13 1016.0 - 0.0 - - - - - - -
25/12:00am 12.6 SE 12 14 1016.2 - 0.0 - - - - - - -
 
Date/Time
EDT
Temp

°C
Wind Pressure Rain
since 9am
mm
Weather Cloud Vis
km
Sea
Height
m
Swell
Dir
 
Speed
knots
Gust
knots
hPa Trend Height
m
Period
s
Dir
24/11:30pm 12.7 SE 13 16 1016.2 - 0.0 - - - - - - -
24/11:00pm 13.0 SSE 14 18 1016.3 - 0.0 - - - - - - -
24/10:30pm 13.2 SSE 16 19 1016.0 - 0.0 - - - - - - -
24/10:00pm 13.1 SSE 17 22 1015.9 - 0.0 - - - - - - -
24/09:30pm 13.5 SSE 16 20 1015.5 - 0.0 - - - - - - -
24/09:00pm 13.9 SSE 15 19 1015.2 - 0.0 - - - - - - -
24/08:30pm 14.7 SSE 14 19 1014.9 - 0.0 - - - - - - -
24/08:00pm 16.0 SSE 14 19 1014.7 - 0.0 - - - - - - -
24/07:30pm 17.2 SSE 14 19 1014.4 - 0.0 - - - - - - -
24/07:00pm 18.4 S 13 18 1014.0 - 0.0 - - - - - - -
24/06:30pm 19.1 S 12 16 1013.7 - 0.0 - - - - - - -
24/06:00pm 19.2 S 14 18 1013.6 - 0.0 - - - - - - -
24/05:30pm 20.3 S 12 15 1013.5 - 0.0 - - - - - - -
24/05:00pm 19.4 SSW 13 16 1013.6 - 0.0 - - - - - - -
24/04:30pm 19.7 SSW 12 16 1013.7 - 0.0 - - - - - - -
24/04:00pm 20.5 SW 10 13 1013.7 - 0.0 - - - - - - -
24/03:30pm 19.8 SW 9 13 1013.7 R 0.0 Fine Partly cloudy 10 <0.1 2.6 8 SW
24/03:00pm 19.7 WSW 9 13 1014.0 - 0.0 - - - - - - -
24/02:30pm 20.1 WSW 9 14 1014.4 - 0.0 - - - - - - -
24/02:00pm 20.2 SW 11 16 1014.2 - 0.0 - - - - - - -
24/01:30pm 19.7 WSW 9 16 1014.2 - 0.0 - - - - - - -
24/01:00pm 20.0 W 8 11 1014.4 - 0.0 - - - - - - -
24/12:30pm 19.9 WNW 8 11 1014.5 - 0.0 - - - - - - -
24/12:00pm 19.4 NNW 7 13 1014.5 - 0.0 - - - - - - -
24/11:30am 18.8 N 7 10 1014.5 - 0.0 - - - - - - -
24/11:00am 18.5 N 6 9 1014.6 - 0.0 - - - - - - -
24/10:30am 18.2 NNE 8 11 1014.6 - 0.0 - - - - - - -
24/10:00am 18.0 N 8 13 1014.3 - 0.0 - - - - - - -
24/09:30am 17.7 NNE 7 11 1014.2 R 0.0 Haze Mostly clear 10 <0.5 - - SW
24/09:00am 16.0 N 9 14 1014.2 - 0.0 - - - - - - -
24/08:30am 16.1 NNE 9 11 1013.9 - 0.0 - - - - - - -
24/08:00am 14.3 ENE 7 10 1013.3 - 0.0 - - - - - - -
24/07:30am 13.3 ENE 9 12 1013.1 - 0.0 - - - - - - -
24/07:00am 13.4 NE 10 13 1012.9 - 0.0 - - - - - - -
24/06:30am 13.7 NE 11 15 1012.9 R 0.0 Mist Partly cloudy 10 <0.5 - - SW
24/06:00am 13.6 NNE 12 17 1012.8 - 0.0 - - - - - - -
24/05:30am 13.2 NE 11 15 1012.3 - 0.0 - - - - - - -
24/05:00am 13.1 NNE 13 17 1012.2 - 0.0 - - - - - - -
24/04:30am 12.8 NE 13 16 1011.6 - 0.0 - - - - - - -
24/04:00am 12.7 ENE 14 17 1011.2 - 0.0 - - - - - - -
24/03:30am 12.8 NE 12 16 1011.8 - 0.0 - - - - - - -
24/03:00am 12.9 ENE 12 16 1012.0 - 0.0 - - - - - - -
24/02:30am 13.0 NE 11 14 1012.8 - 0.0 - - - - - - -
24/02:00am 12.8 NE 10 12 1013.3 - 0.0 - - - - - - -
24/01:30am 12.9 NE 9 10 1014.3 - 0.0 - - - - - - -
24/01:00am 12.6 ENE 9 11 1014.5 - 0.0 - - - - - - -
24/12:30am 11.2 E 9 10 1014.4 - 0.0 - - - - - - -
24/12:00am 11.4 ESE 9 11 1014.9 - 0.0 - - - - - - -
 
Date/Time
EDT
Temp

°C
Wind Pressure Rain
since 9am
mm
Weather Cloud Vis
km
Sea
Height
m
Swell
Dir
 
Speed
knots
Gust
knots
hPa Trend Height
m
Period
s
Dir
23/11:30pm 11.5 ESE 8 11 1014.9 - 0.0 - - - - - - -
23/11:00pm 11.6 ESE 9 12 1015.2 - 0.0 - - - - - - -
23/10:30pm 11.7 SE 9 11 1015.4 - 0.0 - - - - - - -
23/10:00pm 12.0 SE 8 11 1015.8 - 0.0 - - - - - - -
23/09:30pm 12.3 SE 8 10 1015.6 - 0.0 - - - - - - -
23/09:00pm 12.8 SE 7 7 1015.4 - 0.0 - - - - - - -
23/08:30pm 13.1 SSE 6 6 1015.5 - 0.0 - - - - - - -
23/08:00pm 14.9 W 4 4 1015.8 - 0.0 - - - - - - -
23/07:30pm 16.0 W 5 7 1015.7 - 0.0 - - - - - - -
23/07:00pm 17.0 WNW 7 9 1015.8 - 0.0 - - - - - - -
23/06:30pm 16.9 NW 6 9 1015.4 - 0.0 - - - - - - -
23/06:00pm 17.0 WNW 7 9 1015.5 - 0.0 - - - - - - -
23/05:30pm 16.5 WNW 8 10 1015.5 - 0.0 - - - - - - -
23/05:00pm 16.5 WNW 10 13 1015.7 - 0.0 - - - - - - -
23/04:30pm 16.8 NW 8 11 1015.7 - 0.0 - - - - - - -
23/04:00pm 16.5 NW 6 9 1015.8 - 0.0 - - - - - - -
23/03:30pm 17.4 NW 9 13 1016.4 F 0.0 Fine Mostly cloudy 22 <0.1 4.0 7 SW
23/03:00pm 17.0 NW 9 11 1016.7 - 0.0 - - - - - - -
23/02:30pm 17.0 NW 8 11 1017.1 - 0.0 - - - - - - -
23/02:00pm 17.5 NNW 9 12 1017.2 - 0.0 - - - - - - -
23/01:30pm 16.4 N 8 11 1017.3 - 0.0 - - - - - - -
23/01:00pm 17.2 N 8 12 1017.7 - 0.0 - - - - - - -
23/12:30pm 17.5 ESE 5 9 1018.1 - 0.0 - - - - - - -
23/12:00pm 16.9 ESE 8 13 1018.2 - 0.0 - - - - - - -
23/11:30am 16.6 SE 9 13 1018.5 - 0.0 - - - - - - -
23/11:00am 16.1 ESE 11 16 1018.6 - 0.0 - - - - - - -
23/10:30am 15.9 ESE 13 17 1018.8 - 0.0 - - - - - - -
23/10:00am 14.7 SE 12 17 1019.1 - 0.0 - - - - - - -
23/09:30am 14.2 ESE 11 17 1019.3 F 0.0 Fine Cloudy 20 <0.5 3.9 7 SW
23/09:00am 13.5 SE 11 16 1019.3 - 0.0 - - - - - - -
23/08:30am 13.1 ESE 13 19 1019.3 - 0.0 - - - - - - -

Other Formats:

Comma delimited format used in spreadsheet applications
http://www.bom.gov.au/fwo/IDT60701/IDT60701.95805.axf

JavaScript Object Notation format (JSON) in row-major order
http://www.bom.gov.au/fwo/IDT60701/IDT60701.95805.json